createdAt,value
2023-05-17T00:00:33.606Z,1153.24
2023-05-17T00:01:18.855Z,1142.67
2023-05-17T00:02:04.015Z,1156.12
2023-05-17T00:02:48.902Z,1155.61
2023-05-17T00:03:33.971Z,1152.72
2023-05-17T00:04:19.382Z,1155.61
2023-05-17T00:05:04.087Z,1156.57
2023-05-17T00:05:49.671Z,1150.79
2023-05-17T00:06:34.434Z,1149.92
2023-05-17T00:07:19.333Z,1151.85
2023-05-17T00:08:04.264Z,1157.66
2023-05-17T00:08:49.149Z,1160.37
2023-05-17T00:09:34.502Z,1150.67
2023-05-17T00:10:19.249Z,1154.55
2023-05-17T00:11:04.504Z,1150.67
2023-05-17T00:11:49.454Z,1145.82
2023-05-17T00:12:34.812Z,1157.46
2023-05-17T00:13:20.239Z,1165.22
2023-05-17T00:14:05.037Z,1154.55
2023-05-17T00:14:50.155Z,1159.10
2023-05-17T00:15:34.813Z,1153.25
2023-05-17T00:16:19.911Z,1156.18
2023-05-17T00:17:05.109Z,1155.20
2023-05-17T00:17:49.998Z,1157.15
2023-05-17T00:18:35.230Z,1149.35
2023-05-17T00:19:21.578Z,1155.20
2023-05-17T00:20:05.472Z,1144.47
2023-05-17T00:20:49.995Z,1144.47
2023-05-17T00:21:34.964Z,1143.49
2023-05-17T00:22:20.125Z,1134.71
2023-05-17T00:23:04.998Z,1138.61
2023-05-17T00:23:50.286Z,1140.57
2023-05-17T00:24:34.990Z,1143.49
2023-05-17T00:25:20.559Z,1136.66
2023-05-17T00:26:05.316Z,1134.71
2023-05-17T00:26:50.465Z,1146.42
2023-05-17T00:27:35.478Z,1146.42
2023-05-17T00:28:20.900Z,1145.44
2023-05-17T00:29:05.739Z,1126.69
2023-05-17T00:29:50.994Z,1141.54
2023-05-17T00:30:35.438Z,1152.27
2023-05-17T00:31:21.146Z,1145.44
2023-05-17T00:32:06.110Z,1140.57
2023-05-17T00:32:51.203Z,1129.83
2023-05-17T00:33:35.768Z,1143.49
2023-05-17T00:34:21.444Z,1131.51
2023-05-17T00:35:06.805Z,1146.42
2023-05-17T00:35:51.151Z,1141.54
2023-05-17T00:36:36.046Z,1141.54
2023-05-17T00:37:21.256Z,1144.47
2023-05-17T00:38:06.362Z,1142.52
2023-05-17T00:38:51.191Z,1139.59
2023-05-17T00:39:36.558Z,1147.40
2023-05-17T00:40:21.606Z,1137.64
2023-05-17T00:41:06.540Z,1136.11
2023-05-17T00:41:51.980Z,1143.49
2023-05-17T00:42:36.776Z,1138.06
2023-05-17T00:43:21.638Z,1135.14
2023-05-17T00:44:06.796Z,1134.17
2023-05-17T00:44:51.944Z,1129.32
2023-05-17T00:45:37.159Z,1131.26
2023-05-17T00:46:22.288Z,1124.77
2023-05-17T00:47:07.034Z,1138.06
2023-05-17T00:47:52.444Z,1140.97
2023-05-17T00:48:37.187Z,1133.20
2023-05-17T00:49:22.470Z,1144.85
2023-05-17T00:50:07.746Z,1142.91
2023-05-17T00:50:52.968Z,1136.11
2023-05-17T00:51:37.594Z,1128.35
2023-05-17T00:52:22.596Z,1130.55
2023-05-17T00:53:07.453Z,1137.08
2023-05-17T00:53:52.645Z,1145.44
2023-05-17T00:54:37.559Z,1142.52
2023-05-17T00:55:23.437Z,1146.42
2023-05-17T00:56:07.571Z,1140.57
2023-05-17T00:56:53.277Z,1136.11
2023-05-17T00:57:38.453Z,1126.69
2023-05-17T00:58:23.045Z,1133.20
2023-05-17T00:59:07.728Z,1130.29
2023-05-17T00:59:53.202Z,1136.11
2023-05-17T01:00:38.109Z,1140.57
2023-05-17T01:01:23.064Z,1140.57
2023-05-17T01:02:08.252Z,1137.64
2023-05-17T01:02:53.266Z,1134.17
2023-05-17T01:03:38.213Z,1136.11
2023-05-17T01:04:23.581Z,1139.03
2023-05-17T01:05:08.177Z,1128.35
2023-05-17T01:05:53.194Z,1132.23
2023-05-17T01:06:38.342Z,1126.41
2023-05-17T01:07:23.767Z,1136.11
2023-05-17T01:08:08.832Z,1130.55
2023-05-17T01:08:54.134Z,1134.17
2023-05-17T01:09:38.595Z,1125.44
2023-05-17T01:10:23.438Z,1129.32
2023-05-17T01:11:08.593Z,1145.44
2023-05-17T01:11:53.769Z,1137.64
2023-05-17T01:12:38.878Z,1144.47
2023-05-17T01:13:23.664Z,1136.66
2023-05-17T01:14:08.447Z,1142.52
2023-05-17T01:14:54.153Z,1125.44
2023-05-17T01:15:39.166Z,1123.50
2023-05-17T01:16:23.992Z,1130.29
2023-05-17T01:17:09.045Z,1135.14
2023-05-17T01:17:54.224Z,1136.11
2023-05-17T01:18:39.278Z,1124.77
2023-05-17T01:19:24.175Z,1134.17
2023-05-17T01:20:09.710Z,1130.29
2023-05-17T01:20:54.435Z,1119.62
2023-05-17T01:21:39.192Z,1123.50
2023-05-17T01:22:24.339Z,1120.59
2023-05-17T01:23:09.394Z,1130.58
2023-05-17T01:23:54.372Z,1123.50
2023-05-17T01:24:39.353Z,1127.38
2023-05-17T01:25:25.228Z,1120.59
2023-05-17T01:26:09.621Z,1117.71
2023-05-17T01:26:54.786Z,1123.50
2023-05-17T01:27:39.953Z,1123.50
2023-05-17T01:28:25.124Z,1119.62
2023-05-17T01:29:10.118Z,1114.77
2023-05-17T01:29:55.002Z,1107.15
2023-05-17T01:30:39.859Z,1119.94
2023-05-17T01:31:25.012Z,1104.26
2023-05-17T01:32:10.080Z,1128.35
2023-05-17T01:32:55.066Z,1127.38
2023-05-17T01:33:40.801Z,1121.56
2023-05-17T01:34:25.245Z,1119.62
2023-05-17T01:35:10.707Z,1127.38
2023-05-17T01:35:55.848Z,1126.41
2023-05-17T01:36:40.582Z,1116.71
2023-05-17T01:37:25.520Z,1119.62
2023-05-17T01:38:10.698Z,1132.23
2023-05-17T01:38:55.600Z,1126.41
2023-05-17T01:39:41.832Z,1111.23
2023-05-17T01:40:25.607Z,1125.74
2023-05-17T01:41:10.747Z,1131.54
2023-05-17T01:41:55.939Z,1107.37
2023-05-17T01:42:40.758Z,1118.00
2023-05-17T01:43:25.939Z,1120.91
2023-05-17T01:44:11.176Z,1105.57
2023-05-17T01:44:55.832Z,1107.42
2023-05-17T01:45:41.187Z,1119.95
2023-05-17T01:46:26.147Z,1113.87
2023-05-17T01:47:11.115Z,1127.66
2023-05-17T01:47:56.336Z,1117.06
2023-05-17T01:48:41.269Z,1118.98
2023-05-17T01:49:26.197Z,1118.02
2023-05-17T01:50:11.235Z,1116.09
2023-05-17T01:50:56.275Z,1123.80
2023-05-17T01:51:41.234Z,1125.73
2023-05-17T01:52:26.557Z,1104.53
2023-05-17T01:53:11.979Z,1095.68
2023-05-17T01:53:56.924Z,1109.35
2023-05-17T01:54:41.806Z,1119.95
2023-05-17T01:55:26.753Z,1105.49
2023-05-17T01:56:11.673Z,1118.98
2023-05-17T01:56:57.148Z,1118.98
2023-05-17T01:57:41.988Z,1115.13
2023-05-17T01:58:26.736Z,1119.95
2023-05-17T01:59:12.520Z,1117.06
2023-05-17T01:59:56.953Z,1111.27
2023-05-17T02:00:44.190Z,1111.27
2023-05-17T02:01:27.272Z,1114.83
2023-05-17T02:02:12.126Z,1115.79
2023-05-17T02:02:57.286Z,1116.75
2023-05-17T02:03:42.998Z,1117.71
2023-05-17T02:04:27.441Z,1104.26
2023-05-17T02:05:12.444Z,1116.75
2023-05-17T02:05:57.613Z,1118.01
2023-05-17T02:06:42.675Z,1115.79
2023-05-17T02:07:27.517Z,1115.79
2023-05-17T02:08:13.429Z,1110.99
2023-05-17T02:08:58.998Z,1122.51
2023-05-17T02:09:42.753Z,1111.95
2023-05-17T02:10:27.744Z,1117.06
2023-05-17T02:11:12.600Z,1105.15
2023-05-17T02:11:59.907Z,1129.59
2023-05-17T02:12:42.610Z,1116.09
2023-05-17T02:13:28.044Z,1094.73
2023-05-17T02:14:13.031Z,1122.84
2023-05-17T02:14:58.098Z,1118.00
2023-05-17T02:15:43.316Z,1116.07
2023-05-17T02:16:28.410Z,1119.95
2023-05-17T02:17:13.659Z,1106.53
2023-05-17T02:17:58.770Z,1126.71
2023-05-17T02:18:43.212Z,1112.20
2023-05-17T02:19:28.407Z,1127.68
2023-05-17T02:20:13.422Z,1118.97
2023-05-17T02:20:58.748Z,1110.27
2023-05-17T02:21:43.906Z,1120.91
2023-05-17T02:22:28.795Z,1120.91
2023-05-17T02:23:13.607Z,1109.07
2023-05-17T02:23:59.068Z,1095.68
2023-05-17T02:24:43.926Z,1088.32
2023-05-17T02:25:29.271Z,1096.80
2023-05-17T02:26:13.857Z,1079.67
2023-05-17T02:26:59.068Z,1089.26
2023-05-17T02:27:44.056Z,1097.49
2023-05-17T02:28:29.003Z,1077.79
2023-05-17T02:29:13.896Z,1086.53
2023-05-17T02:29:59.628Z,1079.86
2023-05-17T02:30:44.081Z,1088.39
2023-05-17T02:31:29.333Z,1064.10
2023-05-17T02:32:14.349Z,1081.71
2023-05-17T02:32:59.659Z,1076.15
2023-05-17T02:33:44.476Z,1077.08
2023-05-17T02:34:29.674Z,1078.93
2023-05-17T02:35:14.928Z,1071.52
2023-05-17T02:35:59.566Z,1037.29
2023-05-17T02:36:45.067Z,1072.44
2023-05-17T02:37:29.717Z,1082.64
2023-05-17T02:38:14.635Z,1082.64
2023-05-17T02:38:59.687Z,1086.24
2023-05-17T02:39:44.974Z,1082.64
2023-05-17T02:40:29.935Z,1098.69
2023-05-17T02:41:14.547Z,1090.93
2023-05-17T02:42:01.008Z,1102.18
2023-05-17T02:42:45.017Z,1093.74
2023-05-17T02:43:30.125Z,1093.74
2023-05-17T02:44:14.781Z,1084.36
2023-05-17T02:45:00.384Z,1085.60
2023-05-17T02:45:45.000Z,1085.60
2023-05-17T02:46:30.357Z,1076.15
2023-05-17T02:47:15.128Z,1064.37
2023-05-17T02:48:00.305Z,1074.43
2023-05-17T02:48:45.033Z,1056.45
2023-05-17T02:49:30.318Z,1064.62
2023-05-17T02:50:15.331Z,1057.36
2023-05-17T02:51:00.350Z,1067.11
2023-05-17T02:51:45.667Z,1075.34
2023-05-17T02:52:30.918Z,1067.11
2023-05-17T02:53:15.251Z,1085.42
2023-05-17T02:54:01.037Z,1078.00
2023-05-17T02:54:45.982Z,1072.60
2023-05-17T02:55:30.921Z,1065.28
2023-05-17T02:56:15.682Z,1068.94
2023-05-17T02:57:00.730Z,1072.60
2023-05-17T02:57:46.022Z,1055.54
2023-05-17T02:58:31.050Z,1058.27
2023-05-17T02:59:16.110Z,1044.49
2023-05-17T03:00:01.079Z,1054.40
2023-05-17T03:00:46.017Z,1042.69
2023-05-17T03:01:31.388Z,1053.50
2023-05-17T03:02:16.411Z,1052.60
2023-05-17T03:03:01.333Z,1062.80
2023-05-17T03:03:47.261Z,1065.28
2023-05-17T03:04:31.737Z,1090.26
2023-05-17T03:05:17.382Z,1051.91
2023-05-17T03:06:01.679Z,1091.86
2023-05-17T03:06:46.484Z,1089.99
2023-05-17T03:07:31.427Z,1100.58
2023-05-17T03:08:16.614Z,1097.75
2023-05-17T03:09:01.865Z,1092.09
2023-05-17T03:09:46.715Z,1101.36
2023-05-17T03:10:32.085Z,1088.09
2023-05-17T03:11:17.632Z,1106.10
2023-05-17T03:12:02.281Z,1101.36
2023-05-17T03:12:47.331Z,1115.14
2023-05-17T03:13:32.070Z,1107.49
2023-05-17T03:14:17.246Z,1112.27
2023-05-17T03:15:02.154Z,1094.68
2023-05-17T03:15:47.142Z,1106.53
2023-05-17T03:16:32.203Z,1096.80
2023-05-17T03:17:17.680Z,1112.91
2023-05-17T03:18:02.907Z,1119.63
2023-05-17T03:18:47.590Z,1115.79
2023-05-17T03:19:32.616Z,1108.11
2023-05-17T03:20:17.550Z,1117.71
2023-05-17T03:21:02.344Z,1110.99
2023-05-17T03:21:47.713Z,1117.71
2023-05-17T03:22:32.855Z,1111.95
2023-05-17T03:23:18.224Z,1094.92
2023-05-17T03:24:02.566Z,1113.23
2023-05-17T03:24:47.627Z,1116.75
2023-05-17T03:25:32.732Z,1107.49
2023-05-17T03:26:17.427Z,1102.34
2023-05-17T03:27:02.992Z,1117.05
2023-05-17T03:27:47.979Z,1104.62
2023-05-17T03:28:33.100Z,1109.40
2023-05-17T03:29:18.236Z,1110.03
2023-05-17T03:30:03.116Z,1106.53
2023-05-17T03:30:48.374Z,1110.03
2023-05-17T03:31:33.231Z,1107.15
2023-05-17T03:32:18.598Z,1123.47
2023-05-17T03:33:03.419Z,1117.06
2023-05-17T03:33:48.730Z,1119.95
2023-05-17T03:34:33.564Z,1116.09
2023-05-17T03:35:18.596Z,1112.24
2023-05-17T03:36:03.720Z,1123.80
2023-05-17T03:36:48.558Z,1118.67
2023-05-17T03:37:33.406Z,1113.87
2023-05-17T03:38:18.837Z,1110.99
2023-05-17T03:39:04.288Z,1115.13
2023-05-17T03:39:48.857Z,1118.02
2023-05-17T03:40:33.730Z,1096.62
2023-05-17T03:41:18.919Z,1118.98
2023-05-17T03:42:03.813Z,1117.06
2023-05-17T03:42:48.885Z,1126.69
2023-05-17T03:43:34.261Z,1116.09
2023-05-17T03:44:19.809Z,1123.80
2023-05-17T03:45:04.248Z,1127.68
2023-05-17T03:45:49.006Z,1139.28
2023-05-17T03:46:34.258Z,1129.61
2023-05-17T03:47:19.307Z,1128.64
2023-05-17T03:48:04.306Z,1126.71
2023-05-17T03:48:49.471Z,1126.71
2023-05-17T03:49:34.689Z,1136.38
2023-05-17T03:50:19.537Z,1135.14
2023-05-17T03:51:04.628Z,1134.17
2023-05-17T03:51:49.545Z,1140.97
2023-05-17T03:52:34.736Z,1142.91
2023-05-17T03:53:19.659Z,1135.14
2023-05-17T03:54:04.714Z,1143.15
2023-05-17T03:54:49.785Z,1130.19
2023-05-17T03:55:34.522Z,1116.09
2023-05-17T03:56:19.782Z,1113.69
2023-05-17T03:57:04.847Z,1116.61
2023-05-17T03:57:49.904Z,1095.85
2023-05-17T03:58:34.775Z,1092.12
2023-05-17T03:59:20.636Z,1056.20
2023-05-17T04:00:05.384Z,1087.27
2023-05-17T04:00:50.244Z,1086.35
2023-05-17T04:01:35.293Z,1073.37
2023-05-17T04:02:20.345Z,1077.17
2023-05-17T04:03:05.566Z,1078.09
2023-05-17T04:03:50.691Z,1066.20
2023-05-17T04:04:35.988Z,1076.26
2023-05-17T04:05:20.842Z,1068.94
2023-05-17T04:06:05.901Z,1066.20
2023-05-17T04:06:50.795Z,1064.62
2023-05-17T04:07:36.145Z,1074.43
2023-05-17T04:08:21.287Z,1074.60
2023-05-17T04:09:06.059Z,1066.43
2023-05-17T04:09:51.101Z,1055.54
2023-05-17T04:10:36.374Z,1059.17
2023-05-17T04:11:20.920Z,1064.62
2023-05-17T04:12:06.463Z,1063.71
2023-05-17T04:12:51.328Z,1069.16
2023-05-17T04:13:36.393Z,1056.45
2023-05-17T04:14:21.299Z,1078.93
2023-05-17T04:15:06.653Z,1105.29
2023-05-17T04:15:51.474Z,1103.41
2023-05-17T04:16:36.935Z,1086.35
2023-05-17T04:17:21.524Z,1110.95
2023-05-17T04:18:06.979Z,1099.63
2023-05-17T04:18:51.485Z,1103.41
2023-05-17T04:19:36.578Z,1107.18
2023-05-17T04:20:21.904Z,1111.79
2023-05-17T04:21:07.024Z,1114.63
2023-05-17T04:21:51.898Z,1122.22
2023-05-17T04:22:37.023Z,1112.74
2023-05-17T04:23:21.850Z,1112.74
2023-05-17T04:24:06.782Z,1122.79
2023-05-17T04:24:52.212Z,1126.61
2023-05-17T04:25:36.882Z,1138.09
2023-05-17T04:26:22.130Z,1127.57
2023-05-17T04:27:07.113Z,1097.75
2023-05-17T04:27:52.518Z,1121.83
2023-05-17T04:28:37.008Z,1121.83
2023-05-17T04:29:22.778Z,1129.23
2023-05-17T04:30:07.333Z,1122.51
2023-05-17T04:30:52.748Z,1130.19
2023-05-17T04:31:37.446Z,1112.74
2023-05-17T04:32:22.575Z,1099.37
2023-05-17T04:33:07.437Z,1098.65
2023-05-17T04:33:52.708Z,1090.26
2023-05-17T04:34:37.147Z,1090.26
2023-05-17T04:35:22.524Z,1095.62
2023-05-17T04:36:07.695Z,1088.20
2023-05-17T04:36:52.686Z,1087.27
2023-05-17T04:37:37.379Z,1088.20
2023-05-17T04:38:22.707Z,1097.47
2023-05-17T04:39:07.600Z,1103.41
2023-05-17T04:39:52.708Z,1120.88
2023-05-17T04:40:37.745Z,1115.58
2023-05-17T04:41:22.561Z,1106.10
2023-05-17T04:42:07.819Z,1113.69
2023-05-17T04:42:53.289Z,1117.48
2023-05-17T04:43:37.937Z,1120.88
2023-05-17T04:44:22.986Z,1118.96
2023-05-17T04:45:08.198Z,1116.09
2023-05-17T04:45:53.229Z,1123.75
2023-05-17T04:46:38.576Z,1124.70
2023-05-17T04:47:23.491Z,1123.75
2023-05-17T04:48:08.546Z,1118.96
2023-05-17T04:48:53.755Z,1116.09
2023-05-17T04:49:38.301Z,1116.09
2023-05-17T04:50:23.343Z,1109.40
2023-05-17T04:51:08.623Z,1101.24
2023-05-17T04:51:53.589Z,1108.95
2023-05-17T04:52:38.882Z,1116.09
2023-05-17T04:53:23.691Z,1116.09
2023-05-17T04:54:08.803Z,1120.88
2023-05-17T04:54:53.866Z,1114.18
2023-05-17T04:55:38.711Z,1110.99
2023-05-17T04:56:24.416Z,1114.83
2023-05-17T04:57:09.128Z,1119.63
2023-05-17T04:57:54.172Z,1131.15
2023-05-17T04:58:39.046Z,1122.51
2023-05-17T04:59:24.023Z,1122.51
2023-05-17T05:00:09.149Z,1118.67
2023-05-17T05:00:54.450Z,1121.87
2023-05-17T05:01:39.096Z,1118.02
2023-05-17T05:02:24.156Z,1124.77
2023-05-17T05:03:09.775Z,1127.66
2023-05-17T05:03:54.183Z,1120.91
2023-05-17T05:04:39.348Z,1121.55
2023-05-17T05:05:24.360Z,1116.09
2023-05-17T05:06:09.320Z,1118.02
2023-05-17T05:06:54.176Z,1124.43
2023-05-17T05:07:39.439Z,1099.47
2023-05-17T05:08:24.898Z,1118.02
2023-05-17T05:09:09.641Z,1099.47
2023-05-17T05:09:54.817Z,1118.67
2023-05-17T05:10:39.909Z,1121.55
2023-05-17T05:11:24.716Z,1104.53
2023-05-17T05:12:09.677Z,1113.20
2023-05-17T05:12:55.239Z,1109.35
2023-05-17T05:13:39.985Z,1107.42
2023-05-17T05:14:24.842Z,1106.45
2023-05-17T05:15:10.300Z,1111.27
2023-05-17T05:15:54.898Z,1105.49
2023-05-17T05:16:40.212Z,1115.13
2023-05-17T05:17:25.345Z,1113.20
2023-05-17T05:18:10.101Z,1111.23
2023-05-17T05:18:55.525Z,1117.06
2023-05-17T05:19:40.157Z,1113.17
2023-05-17T05:20:27.725Z,1118.98
2023-05-17T05:21:10.855Z,1119.94
2023-05-17T05:21:55.400Z,1116.07
2023-05-17T05:22:40.300Z,1118.97
2023-05-17T05:23:25.523Z,1107.49
2023-05-17T05:24:10.462Z,1110.27
2023-05-17T05:24:55.351Z,1118.00
2023-05-17T05:25:41.540Z,1118.00
2023-05-17T05:26:25.432Z,1109.35
2023-05-17T05:27:10.688Z,1103.50
2023-05-17T05:27:55.751Z,1109.30
2023-05-17T05:28:40.763Z,1112.20
2023-05-17T05:29:25.784Z,1104.46
2023-05-17T05:30:11.382Z,1103.50
2023-05-17T05:30:56.190Z,1109.30
2023-05-17T05:31:41.024Z,1109.30
2023-05-17T05:32:26.029Z,1115.10
2023-05-17T05:33:11.232Z,1106.40
2023-05-17T05:33:56.139Z,1109.30
2023-05-17T05:34:41.459Z,1109.30
2023-05-17T05:35:26.440Z,1106.40
2023-05-17T05:36:11.474Z,1105.43
2023-05-17T05:36:56.640Z,1103.13
2023-05-17T05:37:41.324Z,1107.01
2023-05-17T05:38:27.059Z,1108.95
2023-05-17T05:39:12.003Z,1108.95
2023-05-17T05:39:56.766Z,1111.86
2023-05-17T05:40:41.724Z,1106.40
2023-05-17T05:41:26.664Z,1103.50
2023-05-17T05:42:12.231Z,1104.46
2023-05-17T05:42:57.643Z,1093.83
2023-05-17T05:43:41.873Z,1110.27
2023-05-17T05:44:26.804Z,1099.63
2023-05-17T05:45:12.386Z,1102.53
2023-05-17T05:45:57.104Z,1104.46
2023-05-17T05:46:42.368Z,1103.50
2023-05-17T05:47:28.846Z,1094.89
2023-05-17T05:48:12.239Z,1089.11
2023-05-17T05:48:57.865Z,1111.23
2023-05-17T05:49:42.535Z,1099.63
2023-05-17T05:50:27.408Z,1096.73
2023-05-17T05:51:12.507Z,1104.46
2023-05-17T05:51:57.454Z,1097.70
2023-05-17T05:52:45.713Z,1094.79
2023-05-17T05:53:27.432Z,1097.54
2023-05-17T05:54:12.627Z,1097.70
2023-05-17T05:54:57.424Z,1094.66
2023-05-17T05:55:42.953Z,1107.01
2023-05-17T05:56:27.880Z,1104.26
2023-05-17T05:57:12.979Z,1107.98
2023-05-17T05:57:57.702Z,1102.16
2023-05-17T05:58:42.805Z,1097.31
2023-05-17T05:59:28.017Z,1110.89
2023-05-17T06:00:13.086Z,1107.01
2023-05-17T06:00:58.433Z,1108.95
2023-05-17T06:01:43.189Z,1110.89
2023-05-17T06:02:28.260Z,1107.98
2023-05-17T06:03:13.408Z,1107.98
2023-05-17T06:03:58.981Z,1121.56
2023-05-17T06:04:45.778Z,1105.07
2023-05-17T06:05:28.752Z,1110.31
2023-05-17T06:06:13.535Z,1112.83
2023-05-17T06:06:58.753Z,1109.30
2023-05-17T06:07:44.154Z,1106.45
2023-05-17T06:08:28.799Z,1094.10
2023-05-17T06:09:13.346Z,1081.71
2023-05-17T06:09:59.736Z,1084.54
2023-05-17T06:10:44.036Z,1078.89
2023-05-17T06:11:28.599Z,1069.35
2023-05-17T06:12:13.952Z,1065.60
2023-05-17T06:12:59.540Z,1075.92
2023-05-17T06:13:43.989Z,1065.08
2023-05-17T06:14:28.897Z,1077.79
2023-05-17T06:15:14.372Z,1079.67
2023-05-17T06:15:59.112Z,1066.01
2023-05-17T06:16:44.204Z,1068.81
2023-05-17T06:17:29.500Z,1086.45
2023-05-17T06:18:14.603Z,1090.82
2023-05-17T06:19:02.658Z,1088.90
2023-05-17T06:19:44.704Z,1093.70
2023-05-17T06:20:30.076Z,1098.50
2023-05-17T06:21:14.866Z,1086.43
2023-05-17T06:21:59.830Z,1094.66
2023-05-17T06:22:45.055Z,1104.26
2023-05-17T06:23:30.760Z,1106.18
2023-05-17T06:24:14.783Z,1090.82
2023-05-17T06:24:59.897Z,1103.30
2023-05-17T06:25:44.698Z,1093.92
2023-05-17T06:26:29.664Z,1107.42
2023-05-17T06:27:14.624Z,1096.82
2023-05-17T06:28:00.267Z,1103.56
2023-05-17T06:28:45.032Z,1105.49
2023-05-17T06:29:30.106Z,1101.63
2023-05-17T06:30:15.151Z,1105.49
2023-05-17T06:31:00.292Z,1091.03
2023-05-17T06:31:45.041Z,1097.78
2023-05-17T06:32:30.140Z,1105.49
2023-05-17T06:33:15.198Z,1100.67
2023-05-17T06:34:00.295Z,1109.30
2023-05-17T06:34:45.460Z,1098.74
2023-05-17T06:35:35.238Z,1100.67
2023-05-17T06:36:17.073Z,1105.49
2023-05-17T06:37:03.005Z,1090.27
2023-05-17T06:37:45.591Z,1102.60
2023-05-17T06:38:30.655Z,1095.85
2023-05-17T06:39:15.709Z,1101.56
2023-05-17T06:40:09.487Z,1102.60
2023-05-17T06:40:46.484Z,1109.30
2023-05-17T06:41:30.875Z,1108.33
2023-05-17T06:42:15.726Z,1110.27
2023-05-17T06:43:01.395Z,1083.58
2023-05-17T06:43:46.152Z,1088.02
2023-05-17T06:44:31.202Z,1093.83
2023-05-17T06:45:16.156Z,1094.79
2023-05-17T06:46:03.887Z,1094.79
2023-05-17T06:46:46.283Z,1094.79
2023-05-17T06:47:31.804Z,1096.73
2023-05-17T06:48:16.976Z,1102.53
2023-05-17T06:49:02.078Z,1088.99
2023-05-17T06:49:46.940Z,1090.93
2023-05-17T06:50:31.560Z,1088.02
2023-05-17T06:51:16.757Z,1102.53
2023-05-17T06:52:01.390Z,1086.02
2023-05-17T06:52:49.591Z,1090.93
2023-05-17T06:53:31.590Z,1093.83
2023-05-17T06:54:16.524Z,1120.59
2023-05-17T06:55:01.595Z,1107.37
2023-05-17T06:55:46.966Z,1095.62
2023-05-17T06:56:32.098Z,1079.56
2023-05-17T06:57:16.648Z,1072.93
2023-05-17T06:58:01.816Z,1057.61
2023-05-17T06:58:47.290Z,1076.85
2023-05-17T06:59:32.655Z,1065.68
2023-05-17T07:00:17.102Z,1068.41
2023-05-17T07:01:02.713Z,1064.66
2023-05-17T07:01:47.188Z,1054.34
2023-05-17T07:02:33.692Z,1067.47
2023-05-17T07:03:17.420Z,1070.29
2023-05-17T07:04:02.265Z,1070.29
2023-05-17T07:04:47.750Z,1073.10
2023-05-17T07:05:33.053Z,1069.35
2023-05-17T07:06:17.544Z,1069.35
2023-05-17T07:07:02.880Z,1063.72
2023-05-17T07:07:47.535Z,1097.92
2023-05-17T07:08:32.346Z,1095.85
2023-05-17T07:09:17.262Z,1096.58
2023-05-17T07:10:02.422Z,1093.70
2023-05-17T07:10:48.379Z,1091.78
2023-05-17T07:11:32.924Z,1098.50
2023-05-17T07:12:17.568Z,1086.02
2023-05-17T07:13:03.689Z,1100.42
2023-05-17T07:13:48.693Z,1091.78
2023-05-17T07:14:32.850Z,1105.49
2023-05-17T07:15:17.894Z,1090.82
2023-05-17T07:16:02.861Z,1094.66
2023-05-17T07:16:48.219Z,1093.70
2023-05-17T07:17:33.364Z,1098.50
2023-05-17T07:18:21.618Z,1097.54
2023-05-17T07:19:03.252Z,1095.62
2023-05-17T07:19:48.045Z,1101.38
2023-05-17T07:20:33.834Z,1077.38
2023-05-17T07:21:18.470Z,1100.42
2023-05-17T07:22:03.779Z,1085.06
2023-05-17T07:22:48.566Z,1090.82
2023-05-17T07:23:33.914Z,1098.74
2023-05-17T07:24:18.590Z,1092.00
2023-05-17T07:25:03.332Z,1083.32
2023-05-17T07:25:50.128Z,1088.14
2023-05-17T07:26:33.874Z,1083.14
2023-05-17T07:27:18.704Z,1065.60
2023-05-17T07:28:04.610Z,1082.41
2023-05-17T07:28:48.685Z,1078.62
2023-05-17T07:29:34.962Z,1077.67
2023-05-17T07:30:21.310Z,1060.97
2023-05-17T07:31:04.094Z,1062.78
2023-05-17T07:31:49.231Z,1062.78
2023-05-17T07:32:34.450Z,1059.97
2023-05-17T07:33:19.151Z,1033.76
2023-05-17T07:34:04.718Z,1038.77
2023-05-17T07:34:49.473Z,1031.45
2023-05-17T07:35:34.671Z,1063.72
2023-05-17T07:36:20.017Z,1060.91
2023-05-17T07:37:04.406Z,1066.54
2023-05-17T07:37:49.701Z,1058.09
2023-05-17T07:38:34.248Z,1061.85
2023-05-17T07:39:19.684Z,1057.16
2023-05-17T07:40:04.642Z,1059.47
2023-05-17T07:40:50.017Z,1059.03
2023-05-17T07:41:34.878Z,1066.54
2023-05-17T07:42:19.832Z,1066.63
2023-05-17T07:43:04.890Z,1064.66
2023-05-17T07:43:50.052Z,1067.47
2023-05-17T07:44:36.539Z,1076.06
2023-05-17T07:45:20.064Z,1081.71
2023-05-17T07:46:04.932Z,1071.34
2023-05-17T07:46:50.595Z,1085.25
2023-05-17T07:47:35.814Z,1071.03
2023-05-17T07:48:20.167Z,1090.27
2023-05-17T07:49:05.648Z,1087.40
2023-05-17T07:49:50.609Z,1087.40
2023-05-17T07:50:35.662Z,1079.75
2023-05-17T07:51:20.511Z,1092.19
2023-05-17T07:52:08.874Z,1093.14
2023-05-17T07:52:50.909Z,1096.01
2023-05-17T07:53:36.098Z,1090.27
2023-05-17T07:54:21.148Z,1089.32
2023-05-17T07:55:07.106Z,1078.80
2023-05-17T07:55:53.658Z,1099.84
2023-05-17T07:56:36.020Z,1083.58
2023-05-17T07:57:20.657Z,1090.27
2023-05-17T07:58:06.022Z,1099.84
2023-05-17T07:58:51.403Z,1088.36
2023-05-17T07:59:36.040Z,1093.14
2023-05-17T08:00:21.113Z,1093.78
2023-05-17T08:01:06.252Z,1089.04
2023-05-17T08:01:51.824Z,1099.84
2023-05-17T08:02:36.331Z,1088.09
2023-05-17T08:03:21.659Z,1088.09
2023-05-17T08:04:06.756Z,1091.23
2023-05-17T08:04:51.391Z,1107.49
2023-05-17T08:05:37.125Z,1099.84
2023-05-17T08:06:21.995Z,1099.84
2023-05-17T08:07:07.014Z,1104.26
2023-05-17T08:07:52.193Z,1095.62
2023-05-17T08:08:36.914Z,1096.58
2023-05-17T08:09:22.193Z,1106.45
2023-05-17T08:10:08.222Z,1099.46
2023-05-17T08:10:52.409Z,1088.09
2023-05-17T08:11:37.762Z,1098.50
2023-05-17T08:12:22.108Z,1098.50
2023-05-17T08:13:08.791Z,1108.11
2023-05-17T08:14:04.041Z,1088.32
2023-05-17T08:14:37.488Z,1110.99
2023-05-17T08:15:22.373Z,1090.27
2023-05-17T08:16:13.628Z,1102.71
2023-05-17T08:16:55.297Z,1111.31
2023-05-17T08:17:37.767Z,1111.31
2023-05-17T08:18:22.926Z,1098.88
2023-05-17T08:19:07.704Z,1102.71
2023-05-17T08:19:52.528Z,1110.36
2023-05-17T08:20:37.625Z,1088.11
2023-05-17T08:21:22.872Z,1102.71
2023-05-17T08:22:08.057Z,1100.79
2023-05-17T08:22:53.107Z,1111.31
2023-05-17T08:23:37.858Z,1102.71
2023-05-17T08:24:23.201Z,1090.93
2023-05-17T08:25:08.268Z,1107.49
2023-05-17T08:25:53.347Z,1093.78
2023-05-17T08:26:38.384Z,1097.57
2023-05-17T08:27:22.823Z,1101.75
2023-05-17T08:28:08.578Z,1090.94
2023-05-17T08:28:53.381Z,1089.04
2023-05-17T08:29:39.622Z,1081.55
2023-05-17T08:31:08.246Z,1076.72
2023-05-17T08:31:53.384Z,1086.20
2023-05-17T08:32:38.403Z,1097.57
2023-05-17T08:33:23.936Z,1085.25
2023-05-17T08:34:09.485Z,1089.99
2023-05-17T08:34:54.771Z,1097.57
2023-05-17T08:35:39.311Z,1089.99
2023-05-17T08:36:23.552Z,1103.26
2023-05-17T08:37:08.875Z,1095.68
2023-05-17T08:37:54.083Z,1091.89
2023-05-17T08:38:38.554Z,1082.41
2023-05-17T08:39:23.509Z,1085.25
2023-05-17T08:40:08.936Z,1092.83
2023-05-17T08:40:54.249Z,1091.89
2023-05-17T08:41:41.141Z,1098.88
2023-05-17T08:42:24.044Z,1095.68
2023-05-17T08:43:09.104Z,1090.94
2023-05-17T08:43:54.277Z,1098.52
2023-05-17T08:44:38.992Z,1094.73
2023-05-17T08:45:24.095Z,1088.09
2023-05-17T08:46:09.053Z,1086.43
2023-05-17T08:46:54.286Z,1078.89
2023-05-17T08:47:38.961Z,1083.60
2023-05-17T08:48:24.925Z,1081.71
2023-05-17T08:49:09.649Z,1078.89
2023-05-17T08:49:54.581Z,1081.71
2023-05-17T08:50:39.577Z,1083.60
2023-05-17T08:51:25.436Z,1089.26
2023-05-17T08:52:09.684Z,1078.89
2023-05-17T08:52:54.671Z,1092.09
2023-05-17T08:53:39.716Z,1082.66
2023-05-17T08:54:24.558Z,1080.77
2023-05-17T08:55:09.586Z,1079.83
2023-05-17T08:55:54.561Z,1082.41
2023-05-17T08:56:40.021Z,1096.62
2023-05-17T08:57:25.011Z,1093.97
2023-05-17T08:58:09.943Z,1086.43
2023-05-17T08:58:56.947Z,1086.43
2023-05-17T08:59:40.244Z,1091.89
2023-05-17T09:00:25.272Z,1102.31
2023-05-17T09:01:10.042Z,1096.62
2023-05-17T09:01:55.518Z,1100.42
2023-05-17T09:02:40.766Z,1102.46
2023-05-17T09:03:25.330Z,1102.31
2023-05-17T09:04:10.740Z,1105.15
2023-05-17T09:04:56.041Z,1094.73
2023-05-17T09:05:40.785Z,1090.94